sensor_id;sensor_type;location;lat;lon;timestamp;temperature;humidity
3626;DHT22;1827;50.534;8.316;2023-04-01T00:00:16;9.20;1.00
3626;DHT22;1827;50.534;8.316;2023-04-01T00:02:42;9.20;1.00
3626;DHT22;1827;50.534;8.316;2023-04-01T00:05:09;9.20;1.00
3626;DHT22;1827;50.534;8.316;2023-04-01T00:07:39;9.20;1.00
3626;DHT22;1827;50.534;8.316;2023-04-01T00:10:07;9.20;1.00
3626;DHT22;1827;50.534;8.316;2023-04-01T00:12:33;9.20;1.00
3626;DHT22;1827;50.534;8.316;2023-04-01T00:15:00;9.20;1.00
3626;DHT22;1827;50.534;8.316;2023-04-01T00:17:26;9.10;1.00
3626;DHT22;1827;50.534;8.316;2023-04-01T00:19:54;9.20;1.00
3626;DHT22;1827;50.534;8.316;2023-04-01T00:22:20;9.20;1.00
3626;DHT22;1827;50.534;8.316;2023-04-01T00:24:46;9.20;1.00
3626;DHT22;1827;50.534;8.316;2023-04-01T00:27:12;9.10;1.00
3626;DHT22;1827;50.534;8.316;2023-04-01T00:29:37;9.10;1.00
3626;DHT22;1827;50.534;8.316;2023-04-01T00:32:03;9.10;1.00
3626;DHT22;1827;50.534;8.316;2023-04-01T00:34:29;9.10;1.00
3626;DHT22;1827;50.534;8.316;2023-04-01T00:36:54;9.10;1.00
3626;DHT22;1827;50.534;8.316;2023-04-01T00:39:21;9.10;1.00
3626;DHT22;1827;50.534;8.316;2023-04-01T00:41:47;9.00;1.00
3626;DHT22;1827;50.534;8.316;2023-04-01T00:44:33;9.10;1.00
3626;DHT22;1827;50.534;8.316;2023-04-01T00:47:00;9.00;1.00
3626;DHT22;1827;50.534;8.316;2023-04-01T00:49:45;9.00;1.00
3626;DHT22;1827;50.534;8.316;2023-04-01T00:52:17;9.00;1.00
3626;DHT22;1827;50.534;8.316;2023-04-01T00:54:46;9.10;1.00
3626;DHT22;1827;50.534;8.316;2023-04-01T00:57:17;9.00;1.00
3626;DHT22;1827;50.534;8.316;2023-04-01T00:59:46;9.10;1.00
3626;DHT22;1827;50.534;8.316;2023-04-01T01:02:14;9.10;1.00
3626;DHT22;1827;50.534;8.316;2023-04-01T01:04:40;9.00;1.00
3626;DHT22;1827;50.534;8.316;2023-04-01T01:07:51;9.00;1.00
3626;DHT22;1827;50.534;8.316;2023-04-01T01:10:24;9.00;1.00
3626;DHT22;1827;50.534;8.316;2023-04-01T01:15:33;9.10;1.00
3626;DHT22;1827;50.534;8.316;2023-04-01T01:23:57;9.00;1.00
3626;DHT22;1827;50.534;8.316;2023-04-01T01:26:37;8.90;1.00
3626;DHT22;1827;50.534;8.316;2023-04-01T01:37:47;8.90;1.00
3626;DHT22;1827;50.534;8.316;2023-04-01T01:40:15;8.90;1.00
3626;DHT22;1827;50.534;8.316;2023-04-01T01:42:46;8.90;1.00
3626;DHT22;1827;50.534;8.316;2023-04-01T01:45:14;8.90;1.00
3626;DHT22;1827;50.534;8.316;2023-04-01T01:47:44;8.90;1.00
3626;DHT22;1827;50.534;8.316;2023-04-01T01:50:11;8.90;1.00
3626;DHT22;1827;50.534;8.316;2023-04-01T01:52:38;8.90;1.00
3626;DHT22;1827;50.534;8.316;2023-04-01T01:55:30;8.80;1.00
3626;DHT22;1827;50.534;8.316;2023-04-01T02:01:01;8.80;1.00
3626;DHT22;1827;50.534;8.316;2023-04-01T02:03:30;8.80;1.00
3626;DHT22;1827;50.534;8.316;2023-04-01T02:06:00;8.80;1.00
3626;DHT22;1827;50.534;8.316;2023-04-01T02:08:35;8.80;1.00
3626;DHT22;1827;50.534;8.316;2023-04-01T02:11:12;8.80;1.00
3626;DHT22;1827;50.534;8.316;2023-04-01T02:14:13;8.80;1.00
3626;DHT22;1827;50.534;8.316;2023-04-01T02:16:55;8.80;1.00
3626;DHT22;1827;50.534;8.316;2023-04-01T02:19:38;8.80;1.00
3626;DHT22;1827;50.534;8.316;2023-04-01T02:22:11;8.80;1.00
3626;DHT22;1827;50.534;8.316;2023-04-01T02:24:40;8.80;1.00
3626;DHT22;1827;50.534;8.316;2023-04-01T02:27:07;8.80;1.00
3626;DHT22;1827;50.534;8.316;2023-04-01T02:29:34;8.80;1.00
3626;DHT22;1827;50.534;8.316;2023-04-01T02:32:00;8.80;1.00
3626;DHT22;1827;50.534;8.316;2023-04-01T02:34:27;8.80;1.00
3626;DHT22;1827;50.534;8.316;2023-04-01T02:36:55;8.70;1.00
3626;DHT22;1827;50.534;8.316;2023-04-01T02:39:21;8.70;1.00
3626;DHT22;1827;50.534;8.316;2023-04-01T02:41:47;8.80;1.00
3626;DHT22;1827;50.534;8.316;2023-04-01T02:44:14;8.70;1.00
3626;DHT22;1827;50.534;8.316;2023-04-01T02:46:40;8.80;1.00
3626;DHT22;1827;50.534;8.316;2023-04-01T02:49:06;8.80;1.00
3626;DHT22;1827;50.534;8.316;2023-04-01T02:51:33;8.70;1.00
3626;DHT22;1827;50.534;8.316;2023-04-01T02:53:58;8.70;1.00
3626;DHT22;1827;50.534;8.316;2023-04-01T02:56:24;8.70;1.00
3626;DHT22;1827;50.534;8.316;2023-04-01T02:58:51;8.70;1.00
3626;DHT22;1827;50.534;8.316;2023-04-01T03:01:18;8.70;1.00
3626;DHT22;1827;50.534;8.316;2023-04-01T03:03:44;8.60;1.00
3626;DHT22;1827;50.534;8.316;2023-04-01T03:06:12;8.60;1.00
3626;DHT22;1827;50.534;8.316;2023-04-01T03:08:38;8.60;1.00
3626;DHT22;1827;50.534;8.316;2023-04-01T03:11:04;8.60;1.00
3626;DHT22;1827;50.534;8.316;2023-04-01T03:13:33;8.60;1.00
3626;DHT22;1827;50.534;8.316;2023-04-01T03:16:00;8.60;1.00
3626;DHT22;1827;50.534;8.316;2023-04-01T03:18:25;8.60;1.00
3626;DHT22;1827;50.534;8.316;2023-04-01T03:20:51;8.60;1.00
3626;DHT22;1827;50.534;8.316;2023-04-01T03:23:17;8.60;1.00
3626;DHT22;1827;50.534;8.316;2023-04-01T03:25:45;8.60;1.00
3626;DHT22;1827;50.534;8.316;2023-04-01T03:28:11;8.60;1.00
3626;DHT22;1827;50.534;8.316;2023-04-01T03:30:38;8.60;1.00
3626;DHT22;1827;50.534;8.316;2023-04-01T03:33:03;8.60;1.00
3626;DHT22;1827;50.534;8.316;2023-04-01T03:35:30;8.60;1.00
3626;DHT22;1827;50.534;8.316;2023-04-01T03:37:56;8.60;1.00
3626;DHT22;1827;50.534;8.316;2023-04-01T03:40:23;8.60;1.00
3626;DHT22;1827;50.534;8.316;2023-04-01T03:42:49;8.60;1.00
3626;DHT22;1827;50.534;8.316;2023-04-01T03:45:15;8.60;1.00
3626;DHT22;1827;50.534;8.316;2023-04-01T03:47:41;8.60;1.00
3626;DHT22;1827;50.534;8.316;2023-04-01T03:50:07;8.60;1.00
3626;DHT22;1827;50.534;8.316;2023-04-01T03:52:34;8.60;1.00
3626;DHT22;1827;50.534;8.316;2023-04-01T03:55:00;8.60;1.00
3626;DHT22;1827;50.534;8.316;2023-04-01T03:57:26;8.60;1.00
3626;DHT22;1827;50.534;8.316;2023-04-01T03:59:55;8.60;1.00
3626;DHT22;1827;50.534;8.316;2023-04-01T04:02:21;8.60;1.00
3626;DHT22;1827;50.534;8.316;2023-04-01T04:04:46;8.60;1.00
3626;DHT22;1827;50.534;8.316;2023-04-01T04:07:12;8.50;1.00
3626;DHT22;1827;50.534;8.316;2023-04-01T04:10:01;8.50;1.00
3626;DHT22;1827;50.534;8.316;2023-04-01T04:12:26;8.60;1.00
3626;DHT22;1827;50.534;8.316;2023-04-01T04:14:52;8.50;1.00
3626;DHT22;1827;50.534;8.316;2023-04-01T04:17:18;8.50;1.00
3626;DHT22;1827;50.534;8.316;2023-04-01T04:19:44;8.50;1.00
3626;DHT22;1827;50.534;8.316;2023-04-01T04:22:10;8.50;1.00
3626;DHT22;1827;50.534;8.316;2023-04-01T04:24:36;8.50;1.00
3626;DHT22;1827;50.534;8.316;2023-04-01T04:27:07;8.50;1.00
3626;DHT22;1827;50.534;8.316;2023-04-01T04:29:36;8.50;1.00
3626;DHT22;1827;50.534;8.316;2023-04-01T04:32:01;8.50;1.00
3626;DHT22;1827;50.534;8.316;2023-04-01T04:34:27;8.40;1.00
3626;DHT22;1827;50.534;8.316;2023-04-01T04:36:53;8.40;1.00
3626;DHT22;1827;50.534;8.316;2023-04-01T04:39:21;8.40;1.00
3626;DHT22;1827;50.534;8.316;2023-04-01T04:41:47;8.40;1.00
3626;DHT22;1827;50.534;8.316;2023-04-01T04:44:13;8.40;1.00
3626;DHT22;1827;50.534;8.316;2023-04-01T04:46:39;8.30;1.00
3626;DHT22;1827;50.534;8.316;2023-04-01T04:49:11;8.30;1.00
3626;DHT22;1827;50.534;8.316;2023-04-01T04:51:36;8.30;1.00
3626;DHT22;1827;50.534;8.316;2023-04-01T04:54:05;8.30;1.00
3626;DHT22;1827;50.534;8.316;2023-04-01T04:56:45;8.30;1.00
3626;DHT22;1827;50.534;8.316;2023-04-01T04:59:10;8.30;1.00
3626;DHT22;1827;50.534;8.316;2023-04-01T05:01:47;8.30;1.00
3626;DHT22;1827;50.534;8.316;2023-04-01T05:04:13;8.30;1.00
3626;DHT22;1827;50.534;8.316;2023-04-01T05:06:43;8.30;1.00
3626;DHT22;1827;50.534;8.316;2023-04-01T05:09:10;8.30;1.00
3626;DHT22;1827;50.534;8.316;2023-04-01T05:11:36;8.30;1.00
3626;DHT22;1827;50.534;8.316;2023-04-01T05:14:02;8.20;1.00
3626;DHT22;1827;50.534;8.316;2023-04-01T05:16:30;8.20;1.00
3626;DHT22;1827;50.534;8.316;2023-04-01T05:18:58;8.20;1.00
3626;DHT22;1827;50.534;8.316;2023-04-01T05:21:24;8.30;12.00
3626;DHT22;1827;50.534;8.316;2023-04-01T05:23:51;8.20;18.70
3626;DHT22;1827;50.534;8.316;2023-04-01T05:26:16;8.20;33.60
3626;DHT22;1827;50.534;8.316;2023-04-01T05:28:42;8.30;42.20
3626;DHT22;1827;50.534;8.316;2023-04-01T05:31:08;8.30;40.10
3626;DHT22;1827;50.534;8.316;2023-04-01T05:33:37;8.30;26.90
3626;DHT22;1827;50.534;8.316;2023-04-01T05:36:12;8.30;28.60
3626;DHT22;1827;50.534;8.316;2023-04-01T05:38:38;8.30;29.00
3626;DHT22;1827;50.534;8.316;2023-04-01T05:41:07;8.30;33.00
3626;DHT22;1827;50.534;8.316;2023-04-01T05:43:38;8.30;20.60
3626;DHT22;1827;50.534;8.316;2023-04-01T05:46:24;8.30;20.40
3626;DHT22;1827;50.534;8.316;2023-04-01T05:48:57;8.40;18.30
3626;DHT22;1827;50.534;8.316;2023-04-01T05:51:24;8.40;15.40
3626;DHT22;1827;50.534;8.316;2023-04-01T05:57:09;8.40;3.90
3626;DHT22;1827;50.534;8.316;2023-04-01T05:59:35;8.40;3.40
3626;DHT22;1827;50.534;8.316;2023-04-01T06:02:01;8.40;1.00
3626;DHT22;1827;50.534;8.316;2023-04-01T06:04:28;8.40;1.00
3626;DHT22;1827;50.534;8.316;2023-04-01T06:06:59;8.40;12.20
3626;DHT22;1827;50.534;8.316;2023-04-01T06:09:29;8.50;10.00
3626;DHT22;1827;50.534;8.316;2023-04-01T06:23:09;8.60;1.00
3626;DHT22;1827;50.534;8.316;2023-04-01T06:28:45;8.70;28.40
3626;DHT22;1827;50.534;8.316;2023-04-01T06:39:25;8.70;1.00
3626;DHT22;1827;50.534;8.316;2023-04-01T06:53:58;8.90;1.60
3626;DHT22;1827;50.534;8.316;2023-04-01T06:56:48;9.00;3.90
3626;DHT22;1827;50.534;8.316;2023-04-01T06:59:26;8.90;13.60
3626;DHT22;1827;50.534;8.316;2023-04-01T07:01:54;9.00;16.40
3626;DHT22;1827;50.534;8.316;2023-04-01T07:04:29;9.00;11.20
3626;DHT22;1827;50.534;8.316;2023-04-01T07:07:03;9.00;61.20
3626;DHT22;1827;50.534;8.316;2023-04-01T07:09:38;9.10;67.50
3626;DHT22;1827;50.534;8.316;2023-04-01T07:17:45;9.20;98.00
3626;DHT22;1827;50.534;8.316;2023-04-01T07:20:39;9.20;99.90
3626;DHT22;1827;50.534;8.316;2023-04-01T07:23:38;9.20;99.90
3626;DHT22;1827;50.534;8.316;2023-04-01T07:26:22;9.20;99.90
3626;DHT22;1827;50.534;8.316;2023-04-01T07:29:14;9.20;99.90
3626;DHT22;1827;50.534;8.316;2023-04-01T07:46:25;9.30;99.90
3626;DHT22;1827;50.534;8.316;2023-04-01T07:49:11;9.50;99.90
3626;DHT22;1827;50.534;8.316;2023-04-01T07:52:05;9.50;99.90
3626;DHT22;1827;50.534;8.316;2023-04-01T07:54:57;9.60;99.90
3626;DHT22;1827;50.534;8.316;2023-04-01T08:00:36;9.70;36.70
3626;DHT22;1827;50.534;8.316;2023-04-01T08:07:10;9.70;1.00
3626;DHT22;1827;50.534;8.316;2023-04-01T08:15:32;9.80;1.00
3626;DHT22;1827;50.534;8.316;2023-04-01T08:21:32;9.70;1.00
3626;DHT22;1827;50.534;8.316;2023-04-01T08:24:56;9.70;1.00
3626;DHT22;1827;50.534;8.316;2023-04-01T08:27:00;9.70;1.00
3626;DHT22;1827;50.534;8.316;2023-04-01T08:32:39;9.80;1.00
3626;DHT22;1827;50.534;8.316;2023-04-01T08:35:25;9.80;1.00
3626;DHT22;1827;50.534;8.316;2023-04-01T08:37:55;9.90;1.00
3626;DHT22;1827;50.534;8.316;2023-04-01T08:46:13;10.40;1.00
3626;DHT22;1827;50.534;8.316;2023-04-01T09:08:24;10.50;1.00
3626;DHT22;1827;50.534;8.316;2023-04-01T09:20:05;10.60;1.00
3626;DHT22;1827;50.534;8.316;2023-04-01T09:25:24;10.80;1.00
3626;DHT22;1827;50.534;8.316;2023-04-01T09:28:13;10.80;99.90
3626;DHT22;1827;50.534;8.316;2023-04-01T09:36:20;10.70;99.90
3626;DHT22;1827;50.534;8.316;2023-04-01T09:41:32;10.60;99.90
3626;DHT22;1827;50.534;8.316;2023-04-01T09:44:36;10.60;99.90
3626;DHT22;1827;50.534;8.316;2023-04-01T10:07:29;11.30;1.00
3626;DHT22;1827;50.534;8.316;2023-04-01T10:13:09;11.10;99.90
3626;DHT22;1827;50.534;8.316;2023-04-01T10:18:32;11.20;1.00
3626;DHT22;1827;50.534;8.316;2023-04-01T11:08:17;11.40;99.90
3626;DHT22;1827;50.534;8.316;2023-04-01T11:37:33;11.00;99.90
3626;DHT22;1827;50.534;8.316;2023-04-01T11:55:06;11.50;1.00
3626;DHT22;1827;50.534;8.316;2023-04-01T11:57:46;11.50;99.90
3626;DHT22;1827;50.534;8.316;2023-04-01T12:03:57;11.60;99.90
3626;DHT22;1827;50.534;8.316;2023-04-01T12:06:49;11.80;99.90
3626;DHT22;1827;50.534;8.316;2023-04-01T12:18:33;12.70;99.90
3626;DHT22;1827;50.534;8.316;2023-04-01T12:21:21;13.10;99.90
3626;DHT22;1827;50.534;8.316;2023-04-01T12:32:18;12.40;23.80
3626;DHT22;1827;50.534;8.316;2023-04-01T12:40:31;12.00;1.00
3626;DHT22;1827;50.534;8.316;2023-04-01T12:46:22;12.30;10.50
3626;DHT22;1827;50.534;8.316;2023-04-01T13:04:00;12.90;1.00
3626;DHT22;1827;50.534;8.316;2023-04-01T13:06:29;13.00;1.00
3626;DHT22;1827;50.534;8.316;2023-04-01T13:12:12;13.00;1.00
3626;DHT22;1827;50.534;8.316;2023-04-01T13:17:35;12.80;1.00
3626;DHT22;1827;50.534;8.316;2023-04-01T13:20:41;12.70;1.00
3626;DHT22;1827;50.534;8.316;2023-04-01T13:26:00;12.70;1.00
3626;DHT22;1827;50.534;8.316;2023-04-01T13:28:39;12.90;1.00
3626;DHT22;1827;50.534;8.316;2023-04-01T13:31:34;12.90;1.00
3626;DHT22;1827;50.534;8.316;2023-04-01T13:42:21;13.00;1.00
3626;DHT22;1827;50.534;8.316;2023-04-01T13:45:17;13.00;1.00
3626;DHT22;1827;50.534;8.316;2023-04-01T13:47:54;12.90;1.00
3626;DHT22;1827;50.534;8.316;2023-04-01T13:50:29;12.90;1.00
3626;DHT22;1827;50.534;8.316;2023-04-01T14:01:57;13.00;1.00
3626;DHT22;1827;50.534;8.316;2023-04-01T14:10:19;13.90;1.00
3626;DHT22;1827;50.534;8.316;2023-04-01T14:13:23;14.20;1.00
3626;DHT22;1827;50.534;8.316;2023-04-01T14:16:55;13.90;1.00
3626;DHT22;1827;50.534;8.316;2023-04-01T14:27:26;13.10;1.00
3626;DHT22;1827;50.534;8.316;2023-04-01T14:38:10;13.10;1.00
3626;DHT22;1827;50.534;8.316;2023-04-01T14:43:47;13.00;1.00
3626;DHT22;1827;50.534;8.316;2023-04-01T14:56:46;12.50;1.00
3626;DHT22;1827;50.534;8.316;2023-04-01T15:02:14;12.20;1.00
3626;DHT22;1827;50.534;8.316;2023-04-01T15:04:54;12.30;1.00
3626;DHT22;1827;50.534;8.316;2023-04-01T15:10:12;12.30;1.00
3626;DHT22;1827;50.534;8.316;2023-04-01T15:13:13;12.30;1.00
3626;DHT22;1827;50.534;8.316;2023-04-01T15:22:15;12.20;1.00
3626;DHT22;1827;50.534;8.316;2023-04-01T15:25:14;11.80;1.00
3626;DHT22;1827;50.534;8.316;2023-04-01T15:31:10;11.60;1.00
3626;DHT22;1827;50.534;8.316;2023-04-01T15:36:20;11.70;1.00
3626;DHT22;1827;50.534;8.316;2023-04-01T15:38:58;11.50;1.00
3626;DHT22;1827;50.534;8.316;2023-04-01T15:41:37;11.50;1.00
3626;DHT22;1827;50.534;8.316;2023-04-01T15:44:44;11.50;1.00
3626;DHT22;1827;50.534;8.316;2023-04-01T15:53:03;11.60;9.50
3626;DHT22;1827;50.534;8.316;2023-04-01T16:09:46;12.10;35.60
3626;DHT22;1827;50.534;8.316;2023-04-01T16:12:19;12.50;60.50
3626;DHT22;1827;50.534;8.316;2023-04-01T16:17:25;12.70;77.30
3626;DHT22;1827;50.534;8.316;2023-04-01T16:20:17;12.80;55.50
3626;DHT22;1827;50.534;8.316;2023-04-01T16:23:02;12.70;25.60
3626;DHT22;1827;50.534;8.316;2023-04-01T16:25:39;12.50;4.00
3626;DHT22;1827;50.534;8.316;2023-04-01T16:28:29;12.40;6.20
3626;DHT22;1827;50.534;8.316;2023-04-01T16:34:08;12.00;1.00
3626;DHT22;1827;50.534;8.316;2023-04-01T16:36:45;12.00;1.00
3626;DHT22;1827;50.534;8.316;2023-04-01T16:39:49;11.90;1.00
3626;DHT22;1827;50.534;8.316;2023-04-01T16:45:26;11.70;12.20
3626;DHT22;1827;50.534;8.316;2023-04-01T16:48:15;11.60;28.20
3626;DHT22;1827;50.534;8.316;2023-04-01T16:51:04;11.40;94.30
3626;DHT22;1827;50.534;8.316;2023-04-01T16:54:04;11.50;99.90
3626;DHT22;1827;50.534;8.316;2023-04-01T16:56:45;11.50;99.90
3626;DHT22;1827;50.534;8.316;2023-04-01T16:59:24;11.70;99.90
3626;DHT22;1827;50.534;8.316;2023-04-01T17:04:36;11.50;99.90
3626;DHT22;1827;50.534;8.316;2023-04-01T17:10:16;11.50;99.90
3626;DHT22;1827;50.534;8.316;2023-04-01T17:21:50;11.30;99.90
3626;DHT22;1827;50.534;8.316;2023-04-01T17:24:46;11.30;99.90
3626;DHT22;1827;50.534;8.316;2023-04-01T17:28:09;11.30;99.90
3626;DHT22;1827;50.534;8.316;2023-04-01T17:30:38;11.30;99.90
3626;DHT22;1827;50.534;8.316;2023-04-01T17:38:39;10.90;99.90
3626;DHT22;1827;50.534;8.316;2023-04-01T17:41:14;10.90;99.90
3626;DHT22;1827;50.534;8.316;2023-04-01T17:55:17;10.70;99.90
3626;DHT22;1827;50.534;8.316;2023-04-01T17:57:47;10.70;99.90
3626;DHT22;1827;50.534;8.316;2023-04-01T18:14:04;10.30;99.90
3626;DHT22;1827;50.534;8.316;2023-04-01T18:19:45;10.20;99.90
3626;DHT22;1827;50.534;8.316;2023-04-01T18:25:28;10.00;99.90
3626;DHT22;1827;50.534;8.316;2023-04-01T18:28:18;10.00;99.90
3626;DHT22;1827;50.534;8.316;2023-04-01T18:30:53;10.00;99.90
3626;DHT22;1827;50.534;8.316;2023-04-01T18:33:48;9.90;1.00
3626;DHT22;1827;50.534;8.316;2023-04-01T18:39:08;9.80;1.00
3626;DHT22;1827;50.534;8.316;2023-04-01T18:47:23;9.60;1.00
3626;DHT22;1827;50.534;8.316;2023-04-01T18:52:44;9.50;1.00
3626;DHT22;1827;50.534;8.316;2023-04-01T18:55:28;9.50;1.00
3626;DHT22;1827;50.534;8.316;2023-04-01T18:58:10;9.50;1.00
3626;DHT22;1827;50.534;8.316;2023-04-01T19:00:44;9.40;1.00
3626;DHT22;1827;50.534;8.316;2023-04-01T19:05:48;9.40;1.00
3626;DHT22;1827;50.534;8.316;2023-04-01T19:08:29;9.50;1.00
3626;DHT22;1827;50.534;8.316;2023-04-01T19:19:08;9.30;1.00
3626;DHT22;1827;50.534;8.316;2023-04-01T19:22:23;9.30;1.00
3626;DHT22;1827;50.534;8.316;2023-04-01T19:27:34;9.30;1.00
3626;DHT22;1827;50.534;8.316;2023-04-01T19:30:07;9.20;1.00
3626;DHT22;1827;50.534;8.316;2023-04-01T19:35:53;9.40;1.00
3626;DHT22;1827;50.534;8.316;2023-04-01T19:38:32;9.40;1.00
3626;DHT22;1827;50.534;8.316;2023-04-01T19:43:48;9.40;1.00
3626;DHT22;1827;50.534;8.316;2023-04-01T19:46:36;9.40;1.00
3626;DHT22;1827;50.534;8.316;2023-04-01T19:52:08;9.30;1.00
3626;DHT22;1827;50.534;8.316;2023-04-01T19:54:48;9.30;1.00
3626;DHT22;1827;50.534;8.316;2023-04-01T20:00:30;9.20;1.00
3626;DHT22;1827;50.534;8.316;2023-04-01T20:03:29;9.20;1.00
3626;DHT22;1827;50.534;8.316;2023-04-01T20:06:20;9.20;1.00
3626;DHT22;1827;50.534;8.316;2023-04-01T20:14:40;9.30;1.00
3626;DHT22;1827;50.534;8.316;2023-04-01T20:17:18;9.20;1.00
3626;DHT22;1827;50.534;8.316;2023-04-01T20:27:45;9.30;1.00
3626;DHT22;1827;50.534;8.316;2023-04-01T20:36:09;9.30;1.00
3626;DHT22;1827;50.534;8.316;2023-04-01T20:53:28;8.80;1.00
3626;DHT22;1827;50.534;8.316;2023-04-01T21:01:39;8.70;1.00
3626;DHT22;1827;50.534;8.316;2023-04-01T21:23:55;8.60;1.00
3626;DHT22;1827;50.534;8.316;2023-04-01T21:32:36;8.70;1.00
3626;DHT22;1827;50.534;8.316;2023-04-01T21:46:26;8.90;1.00
3626;DHT22;1827;50.534;8.316;2023-04-01T22:00:09;8.90;1.00
3626;DHT22;1827;50.534;8.316;2023-04-01T22:05:56;8.80;42.70
3626;DHT22;1827;50.534;8.316;2023-04-01T22:17:26;8.70;99.90
3626;DHT22;1827;50.534;8.316;2023-04-01T22:20:16;8.60;99.90
3626;DHT22;1827;50.534;8.316;2023-04-01T22:23:16;8.60;99.90
3626;DHT22;1827;50.534;8.316;2023-04-01T22:29:05;8.50;99.90
3626;DHT22;1827;50.534;8.316;2023-04-01T22:31:12;8.50;99.90
3626;DHT22;1827;50.534;8.316;2023-04-01T22:53:09;8.50;1.00
3626;DHT22;1827;50.534;8.316;2023-04-01T22:55:43;8.40;1.00
3626;DHT22;1827;50.534;8.316;2023-04-01T22:58:14;8.30;1.00
3626;DHT22;1827;50.534;8.316;2023-04-01T23:00:45;8.30;1.00
3626;DHT22;1827;50.534;8.316;2023-04-01T23:03:30;8.20;1.00
3626;DHT22;1827;50.534;8.316;2023-04-01T23:05:59;8.20;1.00
3626;DHT22;1827;50.534;8.316;2023-04-01T23:08:45;8.20;1.00
3626;DHT22;1827;50.534;8.316;2023-04-01T23:11:27;8.20;1.00
3626;DHT22;1827;50.534;8.316;2023-04-01T23:16:57;8.10;99.90
3626;DHT22;1827;50.534;8.316;2023-04-01T23:19:52;8.10;99.90
3626;DHT22;1827;50.534;8.316;2023-04-01T23:22:42;8.10;99.90
3626;DHT22;1827;50.534;8.316;2023-04-01T23:35:50;8.10;1.00
3626;DHT22;1827;50.534;8.316;2023-04-01T23:38:17;8.10;1.00
3626;DHT22;1827;50.534;8.316;2023-04-01T23:40:43;8.10;1.00
3626;DHT22;1827;50.534;8.316;2023-04-01T23:43:23;8.10;1.00
3626;DHT22;1827;50.534;8.316;2023-04-01T23:45:49;8.00;1.00
3626;DHT22;1827;50.534;8.316;2023-04-01T23:48:16;8.00;1.00
3626;DHT22;1827;50.534;8.316;2023-04-01T23:50:44;8.00;1.00
3626;DHT22;1827;50.534;8.316;2023-04-01T23:53:25;7.90;1.00
3626;DHT22;1827;50.534;8.316;2023-04-01T23:55:52;7.90;1.00
3626;DHT22;1827;50.534;8.316;2023-04-01T23:58:38;7.90;1.00
